River Forest, Illinois
Current Conditions -  °F | °C
As of 2:53 PM on Wednesday 26 Nov 2014 (Local Time) from KMDW Reporting Station
Overcast Overcast  
Wind Chill: -5°   Ceiling: 2100
Heat Index: -2°   Visibility: 9mi
Dew Point: -7°   Wind: 6mph
Humidity: 67%   Direction: 100°E
Pressure: 30.12"   Gusts: NA
Location:  41.88°N, 87.82°W
Report Text: KMDW 262053Z 10005KT 9SM OVC021 M02/M07 A3012 RMK AO2 SLP213 T10171072 55002
Loading
Personal Weather Stations






























Interactive Weather Map New forecast layout! Learn more

10-Day Weather Forecast

Advertisements
Track Severe Weather on mobile